sensor_id;sensor_type;location;lat;lon;timestamp;pressure;altitude;pressure_sealevel;temperature;humidity
23446;BME280;11895;48.738;9.320;2022-12-11T00:00:07;98192.78;;;2.75;100.00
23446;BME280;11895;48.738;9.320;2022-12-11T00:02:36;98181.78;;;2.90;100.00
23446;BME280;11895;48.738;9.320;2022-12-11T00:05:04;98185.34;;;2.89;100.00
23446;BME280;11895;48.738;9.320;2022-12-11T00:07:32;98178.97;;;2.96;100.00
23446;BME280;11895;48.738;9.320;2022-12-11T00:10:00;98173.53;;;3.01;100.00
23446;BME280;11895;48.738;9.320;2022-12-11T00:12:29;98173.53;;;3.01;100.00
23446;BME280;11895;48.738;9.320;2022-12-11T00:14:57;98173.94;;;2.86;100.00
23446;BME280;11895;48.738;9.320;2022-12-11T00:17:25;98178.22;;;2.90;100.00
23446;BME280;11895;48.738;9.320;2022-12-11T00:19:53;98166.78;;;2.88;100.00
23446;BME280;11895;48.738;9.320;2022-12-11T00:22:21;98161.38;;;2.91;100.00
23446;BME280;11895;48.738;9.320;2022-12-11T00:24:50;98160.63;;;2.86;100.00
23446;BME280;11895;48.738;9.320;2022-12-11T00:27:17;98168.59;;;2.86;100.00
23446;BME280;11895;48.738;9.320;2022-12-11T00:29:46;98162.38;;;2.87;100.00
23446;BME280;11895;48.738;9.320;2022-12-11T00:32:14;98162.50;;;2.82;100.00
23446;BME280;11895;48.738;9.320;2022-12-11T00:34:42;98161.84;;;2.72;100.00
23446;BME280;11895;48.738;9.320;2022-12-11T00:37:10;98168.34;;;2.61;100.00
23446;BME280;11895;48.738;9.320;2022-12-11T00:39:38;98163.44;;;2.44;100.00
23446;BME280;11895;48.738;9.320;2022-12-11T00:42:09;98158.19;;;2.41;100.00
23446;BME280;11895;48.738;9.320;2022-12-11T00:44:37;98156.06;;;2.55;100.00
23446;BME280;11895;48.738;9.320;2022-12-11T00:47:04;98158.44;;;2.67;100.00
23446;BME280;11895;48.738;9.320;2022-12-11T00:49:32;98156.63;;;2.34;100.00
23446;BME280;11895;48.738;9.320;2022-12-11T00:52:00;98154.50;;;2.48;100.00
23446;BME280;11895;48.738;9.320;2022-12-11T00:54:27;98161.06;;;2.31;100.00
23446;BME280;11895;48.738;9.320;2022-12-11T00:56:55;98155.16;;;2.20;100.00
23446;BME280;11895;48.738;9.320;2022-12-11T00:59:23;98153.31;;;2.24;100.00
23446;BME280;11895;48.738;9.320;2022-12-11T01:01:51;98166.59;;;2.22;100.00
23446;BME280;11895;48.738;9.320;2022-12-11T01:04:18;98173.38;;;2.36;100.00
23446;BME280;11895;48.738;9.320;2022-12-11T01:06:46;98179.00;;;2.22;100.00
23446;BME280;11895;48.738;9.320;2022-12-11T01:09:14;98184.53;;;2.14;100.00
23446;BME280;11895;48.738;9.320;2022-12-11T01:12:07;98192.66;;;2.08;100.00
23446;BME280;11895;48.738;9.320;2022-12-11T01:14:35;98197.44;;;2.29;100.00
23446;BME280;11895;48.738;9.320;2022-12-11T01:17:03;98200.72;;;2.41;100.00
23446;BME280;11895;48.738;9.320;2022-12-11T01:19:31;98199.69;;;2.48;100.00
23446;BME280;11895;48.738;9.320;2022-12-11T01:21:59;98197.63;;;2.22;100.00
23446;BME280;11895;48.738;9.320;2022-12-11T01:24:27;98196.38;;;2.37;100.00
23446;BME280;11895;48.738;9.320;2022-12-11T01:26:55;98197.31;;;2.36;100.00
23446;BME280;11895;48.738;9.320;2022-12-11T01:29:22;98198.81;;;2.47;100.00
23446;BME280;11895;48.738;9.320;2022-12-11T01:31:50;98202.13;;;2.55;100.00
23446;BME280;11895;48.738;9.320;2022-12-11T01:34:18;98208.03;;;2.68;100.00
23446;BME280;11895;48.738;9.320;2022-12-11T01:36:46;98208.91;;;2.69;100.00
23446;BME280;11895;48.738;9.320;2022-12-11T01:39:13;98211.63;;;2.67;100.00
23446;BME280;11895;48.738;9.320;2022-12-11T01:41:41;98214.06;;;2.76;100.00
23446;BME280;11895;48.738;9.320;2022-12-11T01:46:43;98213.59;;;2.93;100.00
23446;BME280;11895;48.738;9.320;2022-12-11T01:49:13;98213.13;;;2.77;100.00
23446;BME280;11895;48.738;9.320;2022-12-11T01:51:58;98222.97;;;2.37;100.00
23446;BME280;11895;48.738;9.320;2022-12-11T01:54:30;98219.31;;;2.41;100.00
23446;BME280;11895;48.738;9.320;2022-12-11T01:57:01;98218.50;;;2.39;100.00
23446;BME280;11895;48.738;9.320;2022-12-11T01:59:34;98221.38;;;2.29;100.00
23446;BME280;11895;48.738;9.320;2022-12-11T02:02:18;98219.84;;;2.19;100.00
23446;BME280;11895;48.738;9.320;2022-12-11T02:04:47;98212.97;;;2.09;100.00
23446;BME280;11895;48.738;9.320;2022-12-11T02:07:16;98212.63;;;2.24;100.00
23446;BME280;11895;48.738;9.320;2022-12-11T02:09:45;98224.09;;;2.26;100.00
23446;BME280;11895;48.738;9.320;2022-12-11T02:12:24;98226.03;;;2.20;100.00
23446;BME280;11895;48.738;9.320;2022-12-11T02:15:27;98228.38;;;2.34;100.00
23446;BME280;11895;48.738;9.320;2022-12-11T02:27:19;98226.25;;;2.48;100.00
23446;BME280;11895;48.738;9.320;2022-12-11T02:32:54;98212.78;;;2.55;100.00
23446;BME280;11895;48.738;9.320;2022-12-11T02:35:39;98212.00;;;2.50;100.00
23446;BME280;11895;48.738;9.320;2022-12-11T02:38:16;98210.16;;;2.54;100.00
23446;BME280;11895;48.738;9.320;2022-12-11T02:40:47;98206.47;;;2.61;100.00
23446;BME280;11895;48.738;9.320;2022-12-11T02:43:16;98214.22;;;2.69;100.00
23446;BME280;11895;48.738;9.320;2022-12-11T02:45:45;98207.22;;;2.66;100.00
23446;BME280;11895;48.738;9.320;2022-12-11T02:48:17;98210.66;;;2.70;100.00
23446;BME280;11895;48.738;9.320;2022-12-11T02:50:50;98217.59;;;2.77;100.00
23446;BME280;11895;48.738;9.320;2022-12-11T02:53:22;98206.31;;;2.67;100.00
23446;BME280;11895;48.738;9.320;2022-12-11T02:56:04;98210.63;;;2.71;100.00
23446;BME280;11895;48.738;9.320;2022-12-11T02:58:41;98222.41;;;2.61;100.00
23446;BME280;11895;48.738;9.320;2022-12-11T03:01:13;98218.25;;;2.49;100.00
23446;BME280;11895;48.738;9.320;2022-12-11T03:03:41;98204.88;;;2.52;100.00
23446;BME280;11895;48.738;9.320;2022-12-11T03:06:12;98198.75;;;2.49;100.00
23446;BME280;11895;48.738;9.320;2022-12-11T03:08:44;98201.41;;;2.49;100.00
23446;BME280;11895;48.738;9.320;2022-12-11T03:11:13;98199.38;;;2.60;100.00
23446;BME280;11895;48.738;9.320;2022-12-11T03:13:41;98198.91;;;2.78;100.00
23446;BME280;11895;48.738;9.320;2022-12-11T03:16:31;98204.41;;;2.72;100.00
23446;BME280;11895;48.738;9.320;2022-12-11T03:19:23;98210.66;;;2.70;100.00
23446;BME280;11895;48.738;9.320;2022-12-11T03:22:06;98208.97;;;2.67;100.00
23446;BME280;11895;48.738;9.320;2022-12-11T03:24:43;98208.19;;;2.62;100.00
23446;BME280;11895;48.738;9.320;2022-12-11T03:27:32;98216.19;;;2.61;100.00
23446;BME280;11895;48.738;9.320;2022-12-11T03:30:16;98216.84;;;2.70;100.00
23446;BME280;11895;48.738;9.320;2022-12-11T03:32:55;98215.03;;;2.72;100.00
23446;BME280;11895;48.738;9.320;2022-12-11T03:35:32;98208.44;;;2.51;100.00
23446;BME280;11895;48.738;9.320;2022-12-11T03:38:05;98216.50;;;2.48;100.00
23446;BME280;11895;48.738;9.320;2022-12-11T03:40:38;98207.50;;;2.54;100.00
23446;BME280;11895;48.738;9.320;2022-12-11T03:43:10;98212.31;;;2.37;100.00
23446;BME280;11895;48.738;9.320;2022-12-11T03:45:39;98214.78;;;2.46;100.00
23446;BME280;11895;48.738;9.320;2022-12-11T03:48:09;98217.78;;;2.30;100.00
23446;BME280;11895;48.738;9.320;2022-12-11T03:50:39;98217.75;;;2.34;100.00
23446;BME280;11895;48.738;9.320;2022-12-11T03:53:13;98214.88;;;2.43;100.00
23446;BME280;11895;48.738;9.320;2022-12-11T03:55:41;98216.72;;;2.39;100.00
23446;BME280;11895;48.738;9.320;2022-12-11T03:58:09;98206.91;;;2.43;100.00
23446;BME280;11895;48.738;9.320;2022-12-11T04:00:37;98206.75;;;2.49;100.00
23446;BME280;11895;48.738;9.320;2022-12-11T04:03:05;98204.91;;;2.51;100.00
23446;BME280;11895;48.738;9.320;2022-12-11T04:05:52;98201.38;;;2.52;100.00
23446;BME280;11895;48.738;9.320;2022-12-11T04:08:22;98192.69;;;2.44;100.00
23446;BME280;11895;48.738;9.320;2022-12-11T04:10:50;98190.78;;;2.49;100.00
23446;BME280;11895;48.738;9.320;2022-12-11T04:13:38;98187.38;;;2.44;100.00
23446;BME280;11895;48.738;9.320;2022-12-11T04:16:06;98198.50;;;2.22;100.00
23446;BME280;11895;48.738;9.320;2022-12-11T04:18:34;98196.84;;;2.18;100.00
23446;BME280;11895;48.738;9.320;2022-12-11T04:21:21;98189.69;;;2.20;100.00
23446;BME280;11895;48.738;9.320;2022-12-11T04:24:07;98192.19;;;2.26;100.00
23446;BME280;11895;48.738;9.320;2022-12-11T04:26:45;98186.78;;;2.31;100.00
23446;BME280;11895;48.738;9.320;2022-12-11T04:29:14;98180.44;;;2.37;100.00
23446;BME280;11895;48.738;9.320;2022-12-11T04:31:41;98183.25;;;2.30;100.00
23446;BME280;11895;48.738;9.320;2022-12-11T04:34:09;98178.53;;;2.42;100.00
23446;BME280;11895;48.738;9.320;2022-12-11T04:36:37;98176.91;;;2.38;100.00
23446;BME280;11895;48.738;9.320;2022-12-11T04:39:05;98171.47;;;2.41;100.00
23446;BME280;11895;48.738;9.320;2022-12-11T04:41:33;98173.09;;;2.48;100.00
23446;BME280;11895;48.738;9.320;2022-12-11T04:44:01;98166.31;;;2.35;100.00
23446;BME280;11895;48.738;9.320;2022-12-11T04:46:29;98163.56;;;2.39;100.00
23446;BME280;11895;48.738;9.320;2022-12-11T04:48:57;98168.69;;;2.47;100.00
23446;BME280;11895;48.738;9.320;2022-12-11T04:51:27;98171.03;;;2.22;100.00
23446;BME280;11895;48.738;9.320;2022-12-11T04:53:55;98163.81;;;2.28;100.00
23446;BME280;11895;48.738;9.320;2022-12-11T04:56:24;98154.06;;;2.29;100.00
23446;BME280;11895;48.738;9.320;2022-12-11T04:58:52;98153.47;;;2.16;100.00
23446;BME280;11895;48.738;9.320;2022-12-11T05:01:21;98164.94;;;2.18;100.00
23446;BME280;11895;48.738;9.320;2022-12-11T05:03:50;98156.72;;;2.29;100.00
23446;BME280;11895;48.738;9.320;2022-12-11T05:06:18;98166.91;;;2.10;100.00
23446;BME280;11895;48.738;9.320;2022-12-11T05:08:45;98161.75;;;2.04;100.00
23446;BME280;11895;48.738;9.320;2022-12-11T05:11:14;98162.41;;;2.14;100.00
23446;BME280;11895;48.738;9.320;2022-12-11T05:13:43;98161.94;;;2.32;100.00
23446;BME280;11895;48.738;9.320;2022-12-11T05:16:13;98164.44;;;2.40;100.00
23446;BME280;11895;48.738;9.320;2022-12-11T05:18:43;98162.47;;;2.46;100.00
23446;BME280;11895;48.738;9.320;2022-12-11T05:21:12;98178.47;;;2.45;100.00
23446;BME280;11895;48.738;9.320;2022-12-11T05:23:41;98180.22;;;2.46;100.00
23446;BME280;11895;48.738;9.320;2022-12-11T05:26:15;98192.25;;;2.62;100.00
23446;BME280;11895;48.738;9.320;2022-12-11T05:28:45;98182.53;;;2.60;100.00
23446;BME280;11895;48.738;9.320;2022-12-11T05:31:18;98186.06;;;2.62;100.00
23446;BME280;11895;48.738;9.320;2022-12-11T05:33:48;98181.50;;;2.65;100.00
23446;BME280;11895;48.738;9.320;2022-12-11T05:38:58;98173.44;;;2.34;100.00
23446;BME280;11895;48.738;9.320;2022-12-11T05:41:28;98171.25;;;2.13;100.00
23446;BME280;11895;48.738;9.320;2022-12-11T05:43:57;98167.28;;;1.93;100.00
23446;BME280;11895;48.738;9.320;2022-12-11T05:46:27;98155.34;;;1.72;100.00
23446;BME280;11895;48.738;9.320;2022-12-11T05:48:58;98155.44;;;1.69;100.00
23446;BME280;11895;48.738;9.320;2022-12-11T05:51:28;98153.41;;;1.80;100.00
23446;BME280;11895;48.738;9.320;2022-12-11T05:53:57;98152.84;;;1.66;100.00
23446;BME280;11895;48.738;9.320;2022-12-11T05:56:28;98149.28;;;1.67;100.00
23446;BME280;11895;48.738;9.320;2022-12-11T05:58:58;98144.94;;;1.63;100.00
23446;BME280;11895;48.738;9.320;2022-12-11T06:01:39;98145.03;;;1.60;100.00
23446;BME280;11895;48.738;9.320;2022-12-11T06:04:10;98139.81;;;1.56;100.00
23446;BME280;11895;48.738;9.320;2022-12-11T06:06:38;98143.28;;;1.14;100.00
23446;BME280;11895;48.738;9.320;2022-12-11T06:09:07;98148.59;;;1.14;100.00
23446;BME280;11895;48.738;9.320;2022-12-11T06:11:35;98158.47;;;1.06;100.00
23446;BME280;11895;48.738;9.320;2022-12-11T06:14:03;98164.59;;;1.10;100.00
23446;BME280;11895;48.738;9.320;2022-12-11T06:16:31;98167.81;;;1.25;100.00
23446;BME280;11895;48.738;9.320;2022-12-11T06:18:59;98171.94;;;1.42;100.00
23446;BME280;11895;48.738;9.320;2022-12-11T06:21:30;98168.97;;;1.57;100.00
23446;BME280;11895;48.738;9.320;2022-12-11T06:24:00;98163.97;;;1.42;100.00
23446;BME280;11895;48.738;9.320;2022-12-11T06:26:29;98159.44;;;1.47;100.00
23446;BME280;11895;48.738;9.320;2022-12-11T06:28:58;98155.03;;;1.46;100.00
23446;BME280;11895;48.738;9.320;2022-12-11T06:31:26;98162.06;;;1.48;100.00
23446;BME280;11895;48.738;9.320;2022-12-11T06:33:54;98151.97;;;1.64;100.00
23446;BME280;11895;48.738;9.320;2022-12-11T06:36:23;98148.28;;;1.31;100.00
23446;BME280;11895;48.738;9.320;2022-12-11T06:38:51;98143.94;;;1.25;100.00
23446;BME280;11895;48.738;9.320;2022-12-11T06:41:19;98140.47;;;1.23;100.00
23446;BME280;11895;48.738;9.320;2022-12-11T06:43:47;98139.13;;;1.01;100.00
23446;BME280;11895;48.738;9.320;2022-12-11T06:46:17;98141.97;;;1.37;100.00
23446;BME280;11895;48.738;9.320;2022-12-11T06:48:47;98141.78;;;1.44;100.00
23446;BME280;11895;48.738;9.320;2022-12-11T06:51:18;98136.97;;;1.21;100.00
23446;BME280;11895;48.738;9.320;2022-12-11T06:53:54;98141.28;;;1.25;100.00
23446;BME280;11895;48.738;9.320;2022-12-11T06:56:23;98151.03;;;1.26;100.00
23446;BME280;11895;48.738;9.320;2022-12-11T06:58:52;98151.94;;;1.24;100.00
23446;BME280;11895;48.738;9.320;2022-12-11T07:01:22;98150.34;;;1.17;100.00
23446;BME280;11895;48.738;9.320;2022-12-11T07:03:56;98154.69;;;1.19;100.00
23446;BME280;11895;48.738;9.320;2022-12-11T07:06:27;98162.81;;;1.12;100.00
23446;BME280;11895;48.738;9.320;2022-12-11T07:08:55;98159.00;;;1.25;100.00
23446;BME280;11895;48.738;9.320;2022-12-11T07:11:24;98165.25;;;1.21;100.00
23446;BME280;11895;48.738;9.320;2022-12-11T07:13:51;98169.50;;;1.31;100.00
23446;BME280;11895;48.738;9.320;2022-12-11T07:16:19;98167.63;;;1.35;100.00
23446;BME280;11895;48.738;9.320;2022-12-11T07:18:49;98163.06;;;1.43;100.00
23446;BME280;11895;48.738;9.320;2022-12-11T07:21:18;98161.97;;;1.53;100.00
23446;BME280;11895;48.738;9.320;2022-12-11T07:23:47;98173.22;;;1.66;100.00
23446;BME280;11895;48.738;9.320;2022-12-11T07:26:18;98164.19;;;1.74;100.00
23446;BME280;11895;48.738;9.320;2022-12-11T07:28:47;98170.16;;;1.83;100.00
23446;BME280;11895;48.738;9.320;2022-12-11T07:31:19;98164.75;;;1.89;100.00
23446;BME280;11895;48.738;9.320;2022-12-11T07:33:53;98170.84;;;1.94;100.00
23446;BME280;11895;48.738;9.320;2022-12-11T07:36:22;98170.31;;;1.76;100.00
23446;BME280;11895;48.738;9.320;2022-12-11T07:38:51;98178.97;;;1.43;100.00
23446;BME280;11895;48.738;9.320;2022-12-11T07:41:19;98175.00;;;1.65;100.00
23446;BME280;11895;48.738;9.320;2022-12-11T07:43:53;98190.72;;;1.74;100.00
23446;BME280;11895;48.738;9.320;2022-12-11T07:46:23;98182.09;;;1.63;100.00
23446;BME280;11895;48.738;9.320;2022-12-11T07:48:53;98183.09;;;1.98;100.00
23446;BME280;11895;48.738;9.320;2022-12-11T07:51:24;98184.25;;;1.86;100.00
23446;BME280;11895;48.738;9.320;2022-12-11T07:53:59;98178.91;;;1.89;100.00
23446;BME280;11895;48.738;9.320;2022-12-11T07:56:35;98177.69;;;1.62;100.00
23446;BME280;11895;48.738;9.320;2022-12-11T07:59:04;98172.53;;;1.54;100.00
23446;BME280;11895;48.738;9.320;2022-12-11T08:01:34;98180.34;;;1.62;100.00
23446;BME280;11895;48.738;9.320;2022-12-11T08:04:07;98174.84;;;1.71;100.00
23446;BME280;11895;48.738;9.320;2022-12-11T08:06:38;98172.03;;;1.79;100.00
23446;BME280;11895;48.738;9.320;2022-12-11T08:09:09;98170.50;;;1.67;100.00
23446;BME280;11895;48.738;9.320;2022-12-11T08:11:48;98173.84;;;1.77;100.00
23446;BME280;11895;48.738;9.320;2022-12-11T08:14:18;98172.94;;;1.78;100.00
23446;BME280;11895;48.738;9.320;2022-12-11T08:16:47;98177.78;;;1.98;100.00
23446;BME280;11895;48.738;9.320;2022-12-11T08:19:15;98173.59;;;1.89;100.00
23446;BME280;11895;48.738;9.320;2022-12-11T08:21:44;98170.75;;;1.97;100.00
23446;BME280;11895;48.738;9.320;2022-12-11T08:24:13;98167.56;;;1.81;100.00
23446;BME280;11895;48.738;9.320;2022-12-11T08:26:44;98168.78;;;2.05;100.00
23446;BME280;11895;48.738;9.320;2022-12-11T08:29:12;98180.94;;;2.15;100.00
23446;BME280;11895;48.738;9.320;2022-12-11T08:31:41;98178.56;;;2.04;100.00
23446;BME280;11895;48.738;9.320;2022-12-11T08:34:09;98167.41;;;2.26;100.00
23446;BME280;11895;48.738;9.320;2022-12-11T08:36:40;98178.47;;;2.45;100.00
23446;BME280;11895;48.738;9.320;2022-12-11T08:39:07;98173.75;;;2.20;100.00
23446;BME280;11895;48.738;9.320;2022-12-11T08:41:35;98178.47;;;2.45;100.00
23446;BME280;11895;48.738;9.320;2022-12-11T08:44:03;98176.81;;;2.41;100.00
23446;BME280;11895;48.738;9.320;2022-12-11T08:46:38;98180.06;;;2.88;100.00
23446;BME280;11895;48.738;9.320;2022-12-11T08:49:06;98180.50;;;3.05;100.00
23446;BME280;11895;48.738;9.320;2022-12-11T08:51:33;98172.69;;;3.31;100.00
23446;BME280;11895;48.738;9.320;2022-12-11T08:54:01;98175.28;;;3.33;100.00
23446;BME280;11895;48.738;9.320;2022-12-11T08:56:29;98174.59;;;3.57;100.00
23446;BME280;11895;48.738;9.320;2022-12-11T08:58:59;98177.00;;;3.03;100.00
23446;BME280;11895;48.738;9.320;2022-12-11T09:01:28;98176.94;;;3.37;100.00
23446;BME280;11895;48.738;9.320;2022-12-11T09:03:57;98171.69;;;3.35;100.00
23446;BME280;11895;48.738;9.320;2022-12-11T09:06:27;98171.13;;;3.24;100.00
23446;BME280;11895;48.738;9.320;2022-12-11T09:08:59;98180.53;;;1.53;100.00
23446;BME280;11895;48.738;9.320;2022-12-11T09:11:31;98179.38;;;2.08;100.00
23446;BME280;11895;48.738;9.320;2022-12-11T09:14:01;98180.88;;;1.79;100.00
23446;BME280;11895;48.738;9.320;2022-12-11T09:16:35;98190.00;;;1.66;100.00
23446;BME280;11895;48.738;9.320;2022-12-11T09:19:08;98185.53;;;1.68;100.00
23446;BME280;11895;48.738;9.320;2022-12-11T09:21:41;98174.78;;;1.74;100.00
23446;BME280;11895;48.738;9.320;2022-12-11T09:24:10;98177.47;;;1.73;100.00
23446;BME280;11895;48.738;9.320;2022-12-11T09:26:39;98174.78;;;1.74;100.00
23446;BME280;11895;48.738;9.320;2022-12-11T09:29:09;98182.31;;;1.94;100.00
23446;BME280;11895;48.738;9.320;2022-12-11T09:31:37;98172.47;;;1.14;100.00
23446;BME280;11895;48.738;9.320;2022-12-11T09:34:10;98172.59;;;1.08;100.00
23446;BME280;11895;48.738;9.320;2022-12-11T09:36:40;98174.00;;;1.27;100.00
23446;BME280;11895;48.738;9.320;2022-12-11T09:39:09;98172.91;;;1.38;100.00
23446;BME280;11895;48.738;9.320;2022-12-11T09:44:29;98168.78;;;2.05;100.00
23446;BME280;11895;48.738;9.320;2022-12-11T09:47:00;98172.06;;;2.53;100.00
23446;BME280;11895;48.738;9.320;2022-12-11T09:49:38;98173.88;;;2.51;100.00
23446;BME280;11895;48.738;9.320;2022-12-11T09:52:22;98159.50;;;2.24;100.00
23446;BME280;11895;48.738;9.320;2022-12-11T09:54:58;98158.91;;;1.29;100.00
23446;BME280;11895;48.738;9.320;2022-12-11T10:09:19;98161.13;;;1.91;100.00
23446;BME280;11895;48.738;9.320;2022-12-11T10:12:19;98162.53;;;2.08;100.00
23446;BME280;11895;48.738;9.320;2022-12-11T10:17:46;98146.81;;;2.36;100.00
23446;BME280;11895;48.738;9.320;2022-12-11T10:20:24;98146.53;;;2.46;100.00
23446;BME280;11895;48.738;9.320;2022-12-11T10:22:55;98134.41;;;2.70;100.00
23446;BME280;11895;48.738;9.320;2022-12-11T10:25:34;98134.59;;;2.97;100.00
23446;BME280;11895;48.738;9.320;2022-12-11T10:28:15;98132.13;;;2.89;100.00
23446;BME280;11895;48.738;9.320;2022-12-11T10:33:35;98124.38;;;2.81;100.00
23446;BME280;11895;48.738;9.320;2022-12-11T10:36:24;98125.56;;;2.70;100.00
23446;BME280;11895;48.738;9.320;2022-12-11T10:38:55;98120.88;;;2.45;100.00
23446;BME280;11895;48.738;9.320;2022-12-11T10:41:41;98116.91;;;2.96;100.00
23446;BME280;11895;48.738;9.320;2022-12-11T10:49:55;98120.66;;;2.54;100.00
23446;BME280;11895;48.738;9.320;2022-12-11T10:52:27;98116.66;;;2.72;100.00
23446;BME280;11895;48.738;9.320;2022-12-11T10:55:04;98109.88;;;2.93;100.00
23446;BME280;11895;48.738;9.320;2022-12-11T10:57:38;98103.19;;;3.11;100.00
23446;BME280;11895;48.738;9.320;2022-12-11T11:00:07;98100.16;;;3.53;100.00
23446;BME280;11895;48.738;9.320;2022-12-11T11:02:57;98095.22;;;3.70;100.00
23446;BME280;11895;48.738;9.320;2022-12-11T11:05:34;98084.53;;;4.00;100.00
23446;BME280;11895;48.738;9.320;2022-12-11T11:08:15;98086.09;;;4.07;100.00
23446;BME280;11895;48.738;9.320;2022-12-11T11:10:51;98081.94;;;4.25;100.00
23446;BME280;11895;48.738;9.320;2022-12-11T11:13:30;98088.47;;;4.16;100.00
23446;BME280;11895;48.738;9.320;2022-12-11T11:16:01;98085.88;;;4.13;100.00
23446;BME280;11895;48.738;9.320;2022-12-11T11:18:32;98079.31;;;3.97;100.00
23446;BME280;11895;48.738;9.320;2022-12-11T11:21:01;98084.63;;;3.69;100.00
23446;BME280;11895;48.738;9.320;2022-12-11T11:23:29;98075.94;;;3.92;100.00
23446;BME280;11895;48.738;9.320;2022-12-11T11:25:58;98079.78;;;3.52;100.00
23446;BME280;11895;48.738;9.320;2022-12-11T11:28:33;98070.38;;;3.70;100.00
23446;BME280;11895;48.738;9.320;2022-12-11T11:31:09;98065.06;;;3.98;100.00
23446;BME280;11895;48.738;9.320;2022-12-11T11:33:49;98067.19;;;3.86;100.00
23446;BME280;11895;48.738;9.320;2022-12-11T11:36:26;98067.44;;;4.07;100.00
23446;BME280;11895;48.738;9.320;2022-12-11T11:42:18;98066.50;;;4.34;100.00
23446;BME280;11895;48.738;9.320;2022-12-11T11:48:01;98057.81;;;4.54;100.00
23446;BME280;11895;48.738;9.320;2022-12-11T11:50:43;98058.03;;;4.75;100.00
23446;BME280;11895;48.738;9.320;2022-12-11T11:53:18;98052.84;;;4.70;100.00
23446;BME280;11895;48.738;9.320;2022-12-11T11:56:19;98046.97;;;4.60;100.00
23446;BME280;11895;48.738;9.320;2022-12-11T12:01:46;98054.84;;;4.12;100.00
23446;BME280;11895;48.738;9.320;2022-12-11T12:04:14;98054.41;;;3.98;100.00
23446;BME280;11895;48.738;9.320;2022-12-11T12:07:10;98048.50;;;3.60;100.00
23446;BME280;11895;48.738;9.320;2022-12-11T12:13:03;98057.22;;;2.73;100.00
23446;BME280;11895;48.738;9.320;2022-12-11T12:16:00;98047.97;;;3.49;100.00
23446;BME280;11895;48.738;9.320;2022-12-11T12:21:23;98047.03;;;4.32;100.00
23446;BME280;11895;48.738;9.320;2022-12-11T12:30:13;98048.56;;;4.39;100.00
23446;BME280;11895;48.738;9.320;2022-12-11T12:38:18;98034.00;;;4.50;100.00
23446;BME280;11895;48.738;9.320;2022-12-11T12:47:10;98021.25;;;5.08;95.81
23446;BME280;11895;48.738;9.320;2022-12-11T12:49:48;98021.06;;;3.58;100.00
23446;BME280;11895;48.738;9.320;2022-12-11T12:52:31;98022.66;;;3.90;100.00
23446;BME280;11895;48.738;9.320;2022-12-11T12:55:22;98017.09;;;4.24;100.00
23446;BME280;11895;48.738;9.320;2022-12-11T13:00:38;98014.59;;;4.45;100.00
23446;BME280;11895;48.738;9.320;2022-12-11T13:03:22;98014.19;;;4.32;100.00
23446;BME280;11895;48.738;9.320;2022-12-11T13:06:08;98016.66;;;4.11;98.82
23446;BME280;11895;48.738;9.320;2022-12-11T13:08:46;98020.16;;;3.85;100.00
23446;BME280;11895;48.738;9.320;2022-12-11T13:11:18;98019.47;;;4.07;100.00
23446;BME280;11895;48.738;9.320;2022-12-11T13:14:34;98014.47;;;4.23;100.00
23446;BME280;11895;48.738;9.320;2022-12-11T13:16:44;98021.84;;;4.16;100.00
23446;BME280;11895;48.738;9.320;2022-12-11T13:25:00;98020.16;;;4.38;100.00
23446;BME280;11895;48.738;9.320;2022-12-11T13:35:26;98025.09;;;4.51;100.00
23446;BME280;11895;48.738;9.320;2022-12-11T13:37:57;98028.88;;;4.69;100.00
23446;BME280;11895;48.738;9.320;2022-12-11T13:40:48;98022.66;;;4.93;99.44
23446;BME280;11895;48.738;9.320;2022-12-11T13:44:28;98019.47;;;5.32;100.00
23446;BME280;11895;48.738;9.320;2022-12-11T13:48:42;98023.91;;;5.31;92.46
23446;BME280;11895;48.738;9.320;2022-12-11T13:52:06;98028.59;;;5.25;98.12
23446;BME280;11895;48.738;9.320;2022-12-11T13:55:24;98019.72;;;5.48;91.99
23446;BME280;11895;48.738;9.320;2022-12-11T13:57:56;98024.03;;;5.28;100.00
23446;BME280;11895;48.738;9.320;2022-12-11T14:00:27;98027.28;;;5.82;98.67
23446;BME280;11895;48.738;9.320;2022-12-11T14:03:04;98025.50;;;5.59;94.25
23446;BME280;11895;48.738;9.320;2022-12-11T14:05:36;98023.88;;;5.55;99.89
23446;BME280;11895;48.738;9.320;2022-12-11T14:08:07;98018.41;;;5.81;100.00
23446;BME280;11895;48.738;9.320;2022-12-11T14:10:38;98022.09;;;6.43;96.59
23446;BME280;11895;48.738;9.320;2022-12-11T14:13:25;98020.63;;;6.14;87.72
23446;BME280;11895;48.738;9.320;2022-12-11T14:15:55;98021.97;;;6.46;92.82
23446;BME280;11895;48.738;9.320;2022-12-11T14:18:27;98025.84;;;5.73;90.52
23446;BME280;11895;48.738;9.320;2022-12-11T14:20:59;98027.06;;;5.64;94.43
23446;BME280;11895;48.738;9.320;2022-12-11T14:23:33;98026.97;;;5.67;97.37
23446;BME280;11895;48.738;9.320;2022-12-11T14:26:03;98028.78;;;5.44;98.25
23446;BME280;11895;48.738;9.320;2022-12-11T14:28:43;98035.28;;;5.13;100.00
23446;BME280;11895;48.738;9.320;2022-12-11T14:31:36;98037.38;;;5.05;99.48
23446;BME280;11895;48.738;9.320;2022-12-11T14:36:47;98046.31;;;4.79;99.35
23446;BME280;11895;48.738;9.320;2022-12-11T14:39:37;98050.66;;;4.81;100.00
23446;BME280;11895;48.738;9.320;2022-12-11T14:42:27;98047.28;;;4.76;100.00
23446;BME280;11895;48.738;9.320;2022-12-11T14:47:42;98047.84;;;4.61;100.00
23446;BME280;11895;48.738;9.320;2022-12-11T14:50:20;98051.44;;;4.60;100.00
23446;BME280;11895;48.738;9.320;2022-12-11T14:53:01;98060.69;;;4.50;100.00
23446;BME280;11895;48.738;9.320;2022-12-11T14:55:33;98056.06;;;4.28;100.00
23446;BME280;11895;48.738;9.320;2022-12-11T14:58:19;98059.88;;;4.21;100.00
23446;BME280;11895;48.738;9.320;2022-12-11T15:03:38;98076.31;;;4.06;100.00
23446;BME280;11895;48.738;9.320;2022-12-11T15:06:31;98062.47;;;3.95;100.00
23446;BME280;11895;48.738;9.320;2022-12-11T15:12:10;98063.06;;;4.04;100.00
23446;BME280;11895;48.738;9.320;2022-12-11T15:14:52;98067.59;;;4.01;100.00
23446;BME280;11895;48.738;9.320;2022-12-11T15:17:25;98069.16;;;4.08;100.00